createdAt,value
2019-01-25T00:01:36.950Z,64.63
2019-01-25T00:04:06.505Z,73.30
2019-01-25T00:06:35.976Z,69.73
2019-01-25T00:09:09.152Z,72.43
2019-01-25T00:11:38.724Z,72.30
2019-01-25T00:14:08.331Z,70.27
2019-01-25T00:16:37.923Z,69.70
2019-01-25T00:19:07.403Z,75.93
2019-01-25T00:21:36.892Z,67.03
2019-01-25T00:24:06.777Z,68.77
2019-01-25T00:26:36.289Z,67.87
2019-01-25T00:29:06.316Z,66.97
2019-01-25T00:31:35.801Z,68.80
2019-01-25T00:34:05.524Z,73.20
2019-01-25T00:36:35.010Z,71.47
2019-01-25T00:39:06.517Z,69.63
2019-01-25T00:41:36.013Z,75.63
2019-01-25T00:44:05.796Z,65.83
2019-01-25T00:46:35.333Z,70.13
2019-01-25T00:49:04.842Z,67.97
2019-01-25T00:51:34.329Z,69.47
2019-01-25T00:54:04.006Z,64.40
2019-01-25T00:56:33.505Z,68.27
2019-01-25T00:59:03.352Z,71.57
2019-01-25T01:01:32.847Z,63.93
2019-01-25T01:04:02.425Z,69.30
2019-01-25T01:06:50.979Z,70.60
2019-01-25T01:09:39.681Z,68.80
2019-01-25T01:12:09.402Z,60.00
2019-01-25T01:14:39.106Z,65.03
2019-01-25T01:17:08.774Z,61.47
2019-01-25T01:19:57.320Z,63.00
2019-01-25T01:22:46.136Z,65.70
2019-01-25T01:25:27.612Z,65.43
2019-01-25T01:31:27.863Z,69.87
2019-01-25T01:34:08.596Z,70.37
2019-01-25T01:36:50.094Z,63.10
2019-01-25T01:39:30.953Z,59.50
2019-01-25T01:42:00.453Z,59.37
2019-01-25T01:44:29.932Z,69.67
2019-01-25T01:47:18.675Z,62.10
2019-01-25T01:49:48.471Z,60.27
2019-01-25T01:52:37.072Z,65.37
2019-01-25T01:55:07.212Z,55.27
2019-01-25T01:57:36.684Z,60.33
2019-01-25T02:00:25.974Z,58.10
2019-01-25T02:02:55.860Z,59.87
2019-01-25T02:05:44.412Z,64.80
2019-01-25T02:08:13.887Z,62.27
2019-01-25T02:11:02.440Z,55.47
2019-01-25T02:13:50.963Z,56.83
2019-01-25T02:16:39.563Z,62.97
2019-01-25T02:19:28.080Z,67.40
2019-01-25T02:21:57.609Z,59.80
2019-01-25T02:24:46.128Z,53.07
2019-01-25T02:27:15.679Z,58.97
2019-01-25T02:29:45.148Z,54.00
2019-01-25T02:32:14.625Z,52.07
2019-01-25T02:34:44.138Z,56.20
2019-01-25T02:37:13.624Z,57.93
2019-01-25T02:39:43.713Z,57.40
2019-01-25T02:42:13.197Z,61.40
2019-01-25T02:44:42.738Z,49.57
2019-01-25T02:47:12.324Z,50.67
2019-01-25T02:49:41.802Z,60.80
2019-01-25T02:52:11.331Z,70.30
2019-01-25T02:54:40.804Z,56.53
2019-01-25T02:57:10.289Z,51.83
2019-01-25T02:59:39.768Z,56.30
2019-01-25T03:02:09.593Z,62.73
2019-01-25T03:04:39.079Z,54.37
2019-01-25T03:07:08.556Z,56.50
2019-01-25T03:09:38.072Z,53.57
2019-01-25T03:12:07.545Z,50.50
2019-01-25T03:14:37.045Z,52.27
2019-01-25T03:17:06.529Z,54.83
2019-01-25T03:19:36.066Z,59.47
2019-01-25T03:22:05.528Z,62.63
2019-01-25T03:24:35.002Z,61.60
2019-01-25T03:27:04.658Z,57.20
2019-01-25T03:29:34.117Z,57.00
2019-01-25T03:32:03.629Z,58.27
2019-01-25T03:34:33.197Z,63.53
2019-01-25T03:37:02.788Z,57.47
2019-01-25T03:39:32.272Z,67.47
2019-01-25T03:42:01.806Z,72.03
2019-01-25T03:44:31.309Z,65.77
2019-01-25T03:47:00.776Z,65.53
2019-01-25T03:52:05.489Z,65.00
2019-01-25T03:54:35.001Z,57.47
2019-01-25T03:57:04.537Z,58.03
2019-01-25T03:59:33.993Z,59.00
2019-01-25T04:02:03.504Z,66.10
2019-01-25T04:04:32.982Z,65.93
2019-01-25T04:07:02.493Z,58.13
2019-01-25T04:09:31.977Z,59.20
2019-01-25T04:12:01.500Z,58.73
2019-01-25T04:14:30.994Z,71.03
2019-01-25T04:17:00.491Z,66.87
2019-01-25T04:19:30.000Z,64.87
2019-01-25T04:21:59.473Z,62.67
2019-01-25T04:24:28.977Z,63.23
2019-01-25T04:26:58.456Z,65.47
2019-01-25T04:29:28.029Z,67.43
2019-01-25T04:31:57.503Z,64.97
2019-01-25T04:34:27.008Z,62.43
2019-01-25T04:36:56.517Z,65.30
2019-01-25T04:39:25.982Z,78.97
2019-01-25T04:41:55.494Z,66.83
2019-01-25T04:44:24.972Z,68.60
2019-01-25T04:46:54.495Z,64.03
2019-01-25T04:49:23.968Z,66.70
2019-01-25T04:51:53.495Z,65.20
2019-01-25T04:54:22.967Z,62.60
2019-01-25T04:56:52.441Z,69.47
2019-01-25T04:59:25.018Z,65.90
2019-01-25T05:01:54.497Z,72.97
2019-01-25T05:04:24.069Z,70.70
2019-01-25T05:06:53.712Z,67.40
2019-01-25T05:09:23.201Z,72.60
2019-01-25T05:11:52.749Z,63.70
2019-01-25T05:14:22.381Z,64.13
2019-01-25T05:16:51.898Z,72.03
2019-01-25T05:19:21.372Z,74.53
2019-01-25T05:21:50.905Z,78.87
2019-01-25T05:24:20.416Z,69.53
2019-01-25T05:26:51.378Z,64.73
2019-01-25T05:29:24.663Z,73.97
2019-01-25T05:31:54.156Z,69.07
2019-01-25T05:34:23.670Z,64.83
2019-01-25T05:36:53.156Z,71.60
2019-01-25T05:39:22.682Z,72.93
2019-01-25T05:41:53.873Z,71.63
2019-01-25T05:44:23.389Z,76.60
2019-01-25T05:46:52.855Z,74.57
2019-01-25T05:49:25.344Z,68.47
2019-01-25T05:51:54.785Z,75.40
2019-01-25T05:56:58.872Z,78.13
2019-01-25T05:59:28.380Z,67.10
2019-01-25T06:01:57.870Z,63.63
2019-01-25T06:04:34.019Z,68.00
2019-01-25T06:07:03.454Z,67.87
2019-01-25T06:09:32.964Z,68.13
2019-01-25T06:12:02.617Z,75.87
2019-01-25T06:14:32.109Z,76.43
2019-01-25T06:17:01.633Z,70.50
2019-01-25T06:19:37.204Z,63.33
2019-01-25T06:22:06.810Z,74.07
2019-01-25T06:24:36.306Z,72.50
2019-01-25T06:27:05.926Z,74.90
2019-01-25T06:29:35.470Z,74.40
2019-01-25T06:32:05.876Z,73.93
2019-01-25T06:34:35.366Z,64.53
2019-01-25T06:37:04.845Z,70.93
2019-01-25T06:39:34.420Z,70.10
2019-01-25T06:42:03.879Z,68.03
2019-01-25T06:44:33.690Z,69.23
2019-01-25T06:47:03.181Z,67.53
2019-01-25T06:49:32.706Z,72.23
2019-01-25T06:52:02.245Z,72.70
2019-01-25T06:54:31.941Z,77.07
2019-01-25T06:57:03.021Z,61.47
2019-01-25T06:59:37.387Z,70.00
2019-01-25T07:02:13.126Z,66.33
2019-01-25T07:04:42.634Z,68.47
2019-01-25T07:07:21.056Z,67.27
2019-01-25T07:09:50.580Z,81.77
2019-01-25T07:12:20.153Z,72.50
2019-01-25T07:14:49.645Z,64.80
2019-01-25T07:17:20.754Z,63.30
2019-01-25T07:19:50.236Z,74.37
2019-01-25T07:22:19.752Z,103.03
2019-01-25T07:24:49.244Z,74.23
2019-01-25T07:27:18.748Z,74.73
2019-01-25T07:29:48.461Z,135.10
2019-01-25T07:32:18.378Z,107.70
2019-01-25T07:34:47.884Z,69.40
2019-01-25T07:37:17.361Z,72.90
2019-01-25T07:39:47.673Z,80.57
2019-01-25T07:42:17.165Z,73.63
2019-01-25T07:47:21.355Z,78.50
2019-01-25T07:49:50.885Z,68.70
2019-01-25T07:52:20.373Z,70.43
2019-01-25T07:54:49.909Z,64.57
2019-01-25T07:57:19.389Z,72.60
2019-01-25T07:59:48.922Z,76.30
2019-01-25T08:02:18.458Z,66.53
2019-01-25T08:04:47.976Z,68.43
2019-01-25T08:07:17.453Z,69.87
2019-01-25T08:09:46.978Z,70.07
2019-01-25T08:12:16.474Z,68.23
2019-01-25T08:14:45.977Z,62.70
2019-01-25T08:17:15.501Z,69.83
2019-01-25T08:19:45.017Z,72.97
2019-01-25T08:22:14.563Z,68.87
2019-01-25T08:24:44.041Z,64.33
2019-01-25T08:27:13.517Z,59.50
2019-01-25T08:29:43.033Z,66.47
2019-01-25T08:32:12.527Z,69.67
2019-01-25T08:34:42.003Z,69.27
2019-01-25T08:37:11.582Z,63.07
2019-01-25T08:39:41.035Z,61.90
2019-01-25T08:42:15.498Z,126.10
2019-01-25T08:44:41.654Z,70.90
2019-01-25T08:47:11.160Z,58.87
2019-01-25T08:49:40.631Z,58.13
2019-01-25T08:52:10.831Z,57.53
2019-01-25T08:54:40.397Z,58.50
2019-01-25T08:57:09.865Z,56.17
2019-01-25T08:59:39.409Z,59.30
2019-01-25T09:02:08.897Z,62.57
2019-01-25T09:04:38.397Z,60.87
2019-01-25T09:07:07.886Z,66.90
2019-01-25T09:09:37.352Z,61.13
2019-01-25T09:12:06.863Z,63.30
2019-01-25T09:14:36.349Z,54.27
2019-01-25T09:17:05.881Z,64.50
2019-01-25T09:19:35.350Z,61.77
2019-01-25T09:22:04.937Z,79.13
2019-01-25T09:24:34.420Z,53.17
2019-01-25T09:27:03.920Z,57.47
2019-01-25T09:29:33.440Z,55.83
2019-01-25T09:32:02.948Z,50.67
2019-01-25T09:34:32.448Z,51.47
2019-01-25T09:37:01.929Z,52.73
2019-01-25T09:39:31.429Z,48.13
2019-01-25T09:42:00.892Z,49.33
2019-01-25T09:44:30.417Z,50.50
2019-01-25T09:46:59.889Z,45.53
2019-01-25T09:49:29.372Z,54.27
2019-01-25T09:51:58.908Z,54.80
2019-01-25T09:54:28.417Z,45.30
2019-01-25T09:56:58.035Z,51.10
2019-01-25T09:59:27.496Z,48.10
2019-01-25T10:01:57.028Z,48.57
2019-01-25T10:04:26.527Z,44.23
2019-01-25T10:09:31.593Z,45.90
2019-01-25T10:12:01.064Z,43.70
2019-01-25T10:14:30.572Z,46.23
2019-01-25T10:17:00.084Z,47.23
2019-01-25T10:19:29.598Z,45.13
2019-01-25T10:21:59.084Z,43.87
2019-01-25T10:24:28.588Z,52.30
2019-01-25T10:26:58.148Z,49.87
2019-01-25T10:29:27.614Z,43.23
2019-01-25T10:31:57.140Z,48.13
2019-01-25T10:34:26.633Z,46.50
2019-01-25T10:36:56.138Z,40.20
2019-01-25T10:39:25.970Z,47.07
2019-01-25T10:41:55.469Z,47.33
2019-01-25T10:44:24.947Z,37.87
2019-01-25T10:46:54.456Z,42.80
2019-01-25T10:49:23.926Z,42.63
2019-01-25T10:51:53.437Z,39.60
2019-01-25T10:54:22.933Z,119.43
2019-01-25T10:56:52.552Z,50.17
2019-01-25T10:59:22.024Z,46.13
2019-01-25T11:01:51.536Z,58.00
2019-01-25T11:04:21.048Z,43.60
2019-01-25T11:06:50.535Z,40.73
2019-01-25T11:09:20.053Z,39.97
2019-01-25T11:11:49.544Z,38.33
2019-01-25T11:14:19.036Z,41.37
2019-01-25T11:16:48.591Z,47.30
2019-01-25T11:19:18.077Z,35.37
2019-01-25T11:21:47.544Z,36.07
2019-01-25T11:24:17.114Z,35.43
2019-01-25T11:26:46.649Z,34.57
2019-01-25T11:29:16.117Z,37.87
2019-01-25T11:31:46.141Z,34.50
2019-01-25T11:34:15.645Z,26.53
2019-01-25T11:36:45.140Z,30.27
2019-01-25T11:39:14.764Z,30.00
2019-01-25T11:41:44.270Z,31.43
2019-01-25T11:44:13.800Z,31.00
2019-01-25T11:46:43.252Z,28.97
2019-01-25T11:49:12.889Z,29.43
2019-01-25T11:51:42.364Z,31.63
2019-01-25T11:54:11.882Z,28.23
2019-01-25T11:56:41.348Z,31.63
2019-01-25T11:59:10.830Z,31.20
2019-01-25T12:01:40.343Z,35.13
2019-01-25T12:04:09.929Z,32.23
2019-01-25T12:06:39.433Z,27.07
2019-01-25T12:09:09.956Z,32.37
2019-01-25T12:11:39.452Z,25.57
2019-01-25T12:14:08.928Z,31.07
2019-01-25T12:16:38.398Z,31.67
2019-01-25T12:19:07.908Z,31.17
2019-01-25T12:21:37.372Z,27.30
2019-01-25T12:24:06.988Z,27.83
2019-01-25T12:26:36.465Z,29.13
2019-01-25T12:29:06.228Z,32.13
2019-01-25T12:31:35.700Z,28.67
2019-01-25T12:34:05.479Z,29.33
2019-01-25T12:36:34.945Z,32.63
2019-01-25T12:39:06.784Z,33.33
2019-01-25T12:41:36.262Z,31.43
2019-01-25T12:44:05.864Z,27.37
2019-01-25T12:46:35.365Z,27.77
2019-01-25T12:49:04.869Z,25.90
2019-01-25T12:51:50.680Z,32.77
2019-01-25T12:54:20.253Z,29.43
2019-01-25T12:56:49.776Z,28.30
2019-01-25T12:59:19.284Z,27.60
2019-01-25T13:01:50.341Z,28.97
2019-01-25T13:04:19.863Z,27.73
2019-01-25T13:06:49.357Z,26.30
2019-01-25T13:09:18.872Z,29.73
2019-01-25T13:11:48.353Z,31.97
2019-01-25T13:14:17.867Z,27.40
2019-01-25T13:16:47.357Z,26.27
2019-01-25T13:19:16.946Z,32.00
2019-01-25T13:21:46.410Z,35.90
2019-01-25T13:24:15.894Z,29.10
2019-01-25T13:26:45.538Z,32.70
2019-01-25T13:29:15.007Z,53.97
2019-01-25T13:31:44.595Z,56.13
2019-01-25T13:34:20.882Z,35.07
2019-01-25T13:39:37.732Z,38.97
2019-01-25T13:50:11.721Z,44.83
2019-01-25T13:52:41.276Z,29.77
2019-01-25T13:55:12.500Z,42.47
2019-01-25T13:57:42.009Z,26.50
2019-01-25T14:00:42.413Z,28.70
2019-01-25T14:03:13.896Z,29.07
2019-01-25T14:05:45.913Z,35.37
2019-01-25T14:08:18.261Z,37.97
2019-01-25T14:10:47.854Z,29.47
2019-01-25T14:13:17.331Z,61.23
2019-01-25T14:15:46.814Z,29.13
2019-01-25T14:18:16.373Z,32.73
2019-01-25T14:20:45.889Z,29.63
2019-01-25T14:23:15.368Z,30.13
2019-01-25T14:26:04.018Z,28.33
2019-01-25T14:28:33.493Z,30.23
2019-01-25T14:31:03.177Z,30.67
2019-01-25T14:33:32.653Z,34.73
2019-01-25T14:36:02.165Z,36.23
2019-01-25T14:38:31.706Z,33.67
2019-01-25T14:41:01.465Z,26.40
2019-01-25T14:43:31.016Z,28.13
2019-01-25T14:46:00.558Z,27.33
2019-01-25T14:48:30.097Z,50.03
2019-01-25T14:50:59.620Z,30.97
2019-01-25T14:53:29.109Z,33.97
2019-01-25T14:55:58.947Z,39.93
2019-01-25T14:58:28.517Z,28.23
2019-01-25T15:00:58.076Z,25.47
2019-01-25T15:03:27.543Z,32.10
2019-01-25T15:05:57.105Z,26.40
2019-01-25T15:08:26.581Z,29.33
2019-01-25T15:10:56.127Z,25.87
2019-01-25T15:13:25.641Z,26.03
2019-01-25T15:15:55.175Z,28.10
2019-01-25T15:18:24.673Z,27.90
2019-01-25T15:20:54.242Z,30.13
2019-01-25T15:23:23.778Z,31.43
2019-01-25T15:25:53.335Z,27.07
2019-01-25T15:28:22.866Z,30.07
2019-01-25T15:30:52.477Z,29.67
2019-01-25T15:33:22.004Z,30.73
2019-01-25T15:35:51.522Z,33.17
2019-01-25T15:38:21.069Z,31.53
2019-01-25T15:40:50.589Z,29.80
2019-01-25T15:43:20.125Z,33.07
2019-01-25T15:45:52.673Z,34.20
2019-01-25T15:48:22.298Z,30.10
2019-01-25T15:50:51.816Z,33.43
2019-01-25T15:53:21.303Z,34.63
2019-01-25T15:55:50.835Z,38.37
2019-01-25T15:58:20.341Z,32.07
2019-01-25T16:00:49.875Z,33.00
2019-01-25T16:03:19.432Z,33.40
2019-01-25T16:05:48.954Z,34.57
2019-01-25T16:08:18.469Z,38.07
2019-01-25T16:10:48.006Z,39.20
2019-01-25T16:13:17.512Z,38.67
2019-01-25T16:15:47.125Z,36.30
2019-01-25T16:18:16.765Z,33.83
2019-01-25T16:20:46.364Z,38.73
2019-01-25T16:23:15.880Z,35.77
2019-01-25T16:25:45.489Z,36.67
2019-01-25T16:28:20.609Z,36.50
2019-01-25T16:30:50.158Z,36.70
2019-01-25T16:33:19.681Z,46.43
2019-01-25T16:35:49.226Z,43.70
2019-01-25T16:38:18.766Z,41.10
2019-01-25T16:40:48.265Z,41.10
2019-01-25T16:43:17.783Z,34.20
2019-01-25T16:45:47.281Z,40.13
2019-01-25T16:48:16.761Z,40.07
2019-01-25T16:50:46.301Z,37.90
2019-01-25T16:53:15.905Z,45.40
2019-01-25T16:55:45.541Z,39.43
2019-01-25T16:58:15.053Z,40.87
2019-01-25T17:00:48.517Z,43.63
2019-01-25T17:03:18.564Z,39.67
2019-01-25T17:05:48.178Z,38.17
2019-01-25T17:08:17.754Z,40.73
2019-01-25T17:10:47.253Z,38.57
2019-01-25T17:13:16.768Z,41.97
2019-01-25T17:15:46.398Z,41.40
2019-01-25T17:18:15.910Z,35.27
2019-01-25T17:20:45.421Z,42.27
2019-01-25T17:23:14.968Z,47.83
2019-01-25T17:25:44.482Z,45.73
2019-01-25T17:28:14.269Z,39.97
2019-01-25T17:30:43.805Z,47.03
2019-01-25T17:33:13.286Z,43.70
2019-01-25T17:35:42.845Z,40.10
2019-01-25T17:38:12.348Z,41.43
2019-01-25T17:40:46.802Z,41.60
2019-01-25T17:43:15.529Z,46.17
2019-01-25T17:45:45.198Z,46.10
2019-01-25T17:48:14.672Z,44.10
2019-01-25T17:50:44.169Z,43.53
2019-01-25T17:53:13.680Z,41.10
2019-01-25T17:55:43.199Z,45.83
2019-01-25T17:58:12.684Z,48.93
2019-01-25T18:00:50.070Z,38.70
2019-01-25T18:03:19.547Z,42.53
2019-01-25T18:05:49.093Z,42.87
2019-01-25T18:08:18.606Z,43.00
2019-01-25T18:10:48.173Z,45.10
2019-01-25T18:13:17.689Z,54.53
2019-01-25T18:20:56.398Z,45.53
2019-01-25T18:23:25.886Z,43.83
2019-01-25T18:26:16.405Z,54.77
2019-01-25T18:29:00.805Z,41.97
2019-01-25T18:31:31.413Z,47.93
2019-01-25T18:34:00.914Z,44.67
2019-01-25T18:36:30.537Z,40.13
2019-01-25T18:39:00.048Z,45.67
2019-01-25T18:41:29.541Z,44.07
2019-01-25T18:43:59.058Z,43.10
2019-01-25T18:46:28.585Z,42.97
2019-01-25T18:48:58.091Z,38.90
2019-01-25T18:51:27.639Z,44.83
2019-01-25T21:17:46.254Z,35.77
2019-01-25T21:20:36.859Z,35.43
2019-01-25T21:23:06.845Z,35.20
2019-01-25T21:25:36.468Z,30.27
2019-01-25T21:28:06.761Z,31.07
2019-01-25T21:30:36.888Z,36.30
2019-01-25T21:33:06.806Z,31.60
2019-01-25T21:35:36.300Z,31.17
2019-01-25T21:38:06.272Z,30.37
2019-01-25T21:40:36.003Z,34.73
2019-01-25T21:43:06.278Z,30.20
2019-01-25T21:45:42.880Z,35.70
2019-01-25T21:50:47.488Z,32.67
2019-01-25T21:53:17.137Z,33.50
2019-01-25T21:55:46.650Z,37.10
2019-01-25T21:58:16.210Z,34.43
2019-01-25T22:17:06.493Z,31.90
2019-01-25T22:19:55.020Z,26.40
2019-01-25T22:25:19.132Z,26.87
2019-01-25T22:28:07.702Z,24.77
2019-01-25T22:30:37.188Z,24.13
2019-01-25T22:33:25.739Z,24.30
2019-01-25T22:35:55.240Z,25.43
2019-01-25T22:38:24.744Z,25.17
2019-01-25T22:40:54.267Z,25.50
2019-01-25T22:43:23.774Z,26.13
2019-01-25T22:45:58.492Z,21.87
2019-01-25T22:48:24.406Z,25.63
2019-01-25T22:50:56.465Z,22.03
2019-01-25T22:53:25.977Z,19.17
2019-01-25T22:55:55.534Z,20.67
2019-01-25T22:58:25.058Z,20.23
2019-01-25T23:01:32.961Z,20.37
2019-01-25T23:04:34.614Z,23.33
2019-01-25T23:07:15.825Z,21.20
2019-01-25T23:09:53.240Z,19.37
2019-01-25T23:12:22.752Z,16.37
2019-01-25T23:14:52.248Z,17.73
2019-01-25T23:17:21.782Z,15.33
2019-01-25T23:19:51.308Z,15.53
2019-01-25T23:22:20.802Z,15.90
2019-01-25T23:24:50.311Z,12.97
2019-01-25T23:27:19.790Z,18.37
2019-01-25T23:29:49.296Z,14.87
2019-01-25T23:32:18.802Z,15.53
2019-01-25T23:34:48.332Z,14.90
2019-01-25T23:37:17.822Z,16.37
2019-01-25T23:39:47.353Z,13.30
2019-01-25T23:42:17.210Z,15.50
2019-01-25T23:44:46.721Z,13.80
2019-01-25T23:47:16.212Z,13.43
2019-01-25T23:49:45.810Z,13.67
2019-01-25T23:52:15.324Z,11.97
2019-01-25T23:54:44.809Z,15.87
2019-01-25T23:57:14.342Z,14.53
2019-01-25T23:59:43.839Z,13.37
